createdAt,value
2022-07-27T00:02:35.761Z,18.83
2022-07-27T00:07:38.135Z,18.68
2022-07-27T00:12:38.826Z,18.53
2022-07-27T00:17:39.524Z,18.26
2022-07-27T00:22:41.803Z,18.17
2022-07-27T00:27:42.401Z,18.06
2022-07-27T00:32:43.049Z,17.96
2022-07-27T00:37:44.968Z,17.33
2022-07-27T00:42:45.824Z,16.93
2022-07-27T00:47:46.416Z,16.60
2022-07-27T00:52:49.514Z,16.43
2022-07-27T00:57:58.838Z,16.43
2022-07-27T01:03:02.521Z,16.38
2022-07-27T01:08:12.472Z,16.40
2022-07-27T01:13:13.649Z,16.46
2022-07-27T01:18:27.487Z,16.48
2022-07-27T01:23:32.496Z,16.56
2022-07-27T01:28:33.180Z,16.69
2022-07-27T01:33:33.778Z,16.74
2022-07-27T01:38:35.685Z,16.70
2022-07-27T01:43:36.341Z,16.78
2022-07-27T01:48:36.999Z,16.85
2022-07-27T01:53:39.038Z,16.87
2022-07-27T01:58:41.105Z,16.93
2022-07-27T02:03:41.690Z,16.85
2022-07-27T02:08:43.820Z,16.91
2022-07-27T02:13:44.912Z,16.96
2022-07-27T02:18:45.990Z,17.08
2022-07-27T02:23:51.067Z,16.98
2022-07-27T02:28:51.990Z,17.03
2022-07-27T02:33:52.617Z,16.92
2022-07-27T02:38:54.586Z,16.83
2022-07-27T02:43:55.220Z,16.79
2022-07-27T02:48:55.949Z,16.87
2022-07-27T02:53:57.896Z,16.87
2022-07-27T02:58:58.516Z,16.78
2022-07-27T03:03:59.213Z,16.64
2022-07-27T03:09:01.207Z,16.79
2022-07-27T03:14:01.828Z,16.75
2022-07-27T03:19:02.686Z,16.71
2022-07-27T03:24:04.895Z,16.56
2022-07-27T03:29:05.502Z,16.65
2022-07-27T03:34:06.255Z,16.59
2022-07-27T03:39:09.164Z,16.64
2022-07-27T03:44:09.955Z,16.64
2022-07-27T03:49:13.797Z,16.61
2022-07-27T03:54:17.815Z,16.70
2022-07-27T03:59:18.422Z,16.74
2022-07-27T04:04:19.046Z,16.61
2022-07-27T04:09:21.015Z,16.67
2022-07-27T04:14:21.854Z,16.50
2022-07-27T04:19:22.512Z,16.40
2022-07-27T04:24:24.476Z,16.51
2022-07-27T04:29:25.168Z,16.35
2022-07-27T04:34:25.993Z,16.53
2022-07-27T04:39:27.898Z,16.54
2022-07-27T04:44:28.507Z,16.56
2022-07-27T04:49:29.290Z,16.62
2022-07-27T04:54:31.241Z,16.87
2022-07-27T04:59:31.891Z,16.95
2022-07-27T05:04:32.612Z,16.94
2022-07-27T05:09:34.577Z,16.78
2022-07-27T05:14:35.185Z,16.86
2022-07-27T05:19:40.252Z,16.89
2022-07-27T05:24:42.882Z,16.81
2022-07-27T05:29:43.551Z,16.69
2022-07-27T05:34:46.054Z,16.73
2022-07-27T05:39:48.353Z,16.82
2022-07-27T05:44:49.036Z,16.83
2022-07-27T05:49:49.681Z,16.85
2022-07-27T05:54:52.868Z,16.75
2022-07-27T05:59:55.071Z,16.90
2022-07-27T06:04:55.746Z,17.03
2022-07-27T06:09:58.771Z,17.34
2022-07-27T06:14:59.413Z,17.46
2022-07-27T06:20:00.551Z,17.19
2022-07-27T06:25:02.546Z,17.46
2022-07-27T06:30:03.322Z,17.60
2022-07-27T06:35:04.777Z,17.72
2022-07-27T06:40:08.994Z,17.77
2022-07-27T06:45:11.037Z,17.52
2022-07-27T06:50:12.894Z,17.64
2022-07-27T06:55:14.950Z,17.90
2022-07-27T07:00:16.272Z,17.69
2022-07-27T07:05:16.870Z,17.32
2022-07-27T07:10:18.934Z,17.42
2022-07-27T07:15:22.906Z,17.77
2022-07-27T07:20:24.017Z,17.65
2022-07-27T07:25:26.386Z,18.09
2022-07-27T07:30:27.998Z,17.91
2022-07-27T07:35:29.158Z,17.58
2022-07-27T07:40:46.739Z,18.00
2022-07-27T07:45:50.148Z,17.79
2022-07-27T07:50:53.988Z,18.18
2022-07-27T07:55:56.760Z,18.22
2022-07-27T08:00:57.455Z,18.36
2022-07-27T08:05:58.169Z,18.24
2022-07-27T08:11:00.115Z,18.19
2022-07-27T08:16:00.894Z,18.20
2022-07-27T08:21:01.594Z,17.91
2022-07-27T08:26:07.727Z,18.03
2022-07-27T08:31:15.281Z,18.39
2022-07-27T08:36:19.769Z,18.24
2022-07-27T08:41:26.017Z,18.39
2022-07-27T08:46:28.463Z,18.79
2022-07-27T08:51:29.937Z,18.92
2022-07-27T08:56:32.009Z,18.94
2022-07-27T09:01:33.095Z,19.17
2022-07-27T09:06:45.205Z,18.19
2022-07-27T09:12:07.947Z,19.03
2022-07-27T09:22:46.839Z,18.55
2022-07-27T09:27:49.737Z,18.75
2022-07-27T09:32:54.670Z,18.76
2022-07-27T09:37:55.339Z,18.60
2022-07-27T09:44:12.198Z,18.64
2022-07-27T09:48:36.769Z,18.94
2022-07-27T09:53:43.229Z,18.92
2022-07-27T09:58:50.937Z,18.95
2022-07-27T10:03:53.678Z,19.45
2022-07-27T10:08:56.772Z,19.46
2022-07-27T10:14:00.193Z,20.12
2022-07-27T10:19:09.745Z,19.78
2022-07-27T10:24:13.883Z,19.86
2022-07-27T10:29:20.300Z,20.36
2022-07-27T10:34:35.100Z,19.77
2022-07-27T10:39:38.810Z,20.30
2022-07-27T10:44:53.114Z,20.38
2022-07-27T10:50:22.086Z,20.40
2022-07-27T10:55:42.849Z,20.44
2022-07-27T11:01:03.085Z,20.37
2022-07-27T11:06:31.311Z,20.37
2022-07-27T11:11:28.329Z,20.71
2022-07-27T11:16:31.326Z,20.86
2022-07-27T11:21:36.072Z,21.49
2022-07-27T11:26:41.299Z,21.38
2022-07-27T11:31:59.337Z,20.96
2022-07-27T11:37:03.117Z,21.21
2022-07-27T11:42:09.055Z,20.98
2022-07-27T11:47:17.418Z,21.23
2022-07-27T11:52:19.696Z,20.88
2022-07-27T11:57:21.197Z,20.77
2022-07-27T12:02:22.261Z,21.09
2022-07-27T12:07:31.257Z,20.81
2022-07-27T12:12:33.662Z,20.88
2022-07-27T12:17:35.138Z,21.51
2022-07-27T12:22:39.682Z,21.25
2022-07-27T12:27:40.382Z,20.88
2022-07-27T12:32:43.721Z,20.86
2022-07-27T12:37:45.901Z,21.29
2022-07-27T12:42:46.834Z,21.16
2022-07-27T12:47:47.548Z,21.10
2022-07-27T12:52:52.223Z,21.48
2022-07-27T12:57:56.546Z,21.34
2022-07-27T13:02:58.609Z,21.02
2022-07-27T13:08:00.989Z,21.28
2022-07-27T13:13:01.833Z,21.82
2022-07-27T13:18:02.711Z,21.99
2022-07-27T13:23:08.348Z,21.73
2022-07-27T13:28:09.026Z,21.90
2022-07-27T13:33:09.951Z,21.93
2022-07-27T13:38:16.277Z,21.90
2022-07-27T13:43:20.346Z,21.50
2022-07-27T13:48:20.990Z,21.35
2022-07-27T13:53:23.100Z,21.93
2022-07-27T13:58:23.825Z,21.64
2022-07-27T14:03:24.474Z,21.35
2022-07-27T14:08:28.443Z,21.25
2022-07-27T14:13:32.644Z,21.81
2022-07-27T14:18:33.444Z,21.65
2022-07-27T14:23:36.753Z,21.89
2022-07-27T14:28:38.821Z,21.47
2022-07-27T14:33:40.701Z,21.59
2022-07-27T14:38:44.243Z,21.62
2022-07-27T14:43:44.892Z,21.32
2022-07-27T14:54:07.698Z,21.32
2022-07-27T14:59:08.574Z,21.41
2022-07-27T15:04:09.163Z,21.62
2022-07-27T15:09:11.377Z,22.37
2022-07-27T15:14:12.223Z,22.44
2022-07-27T15:19:13.042Z,22.58
2022-07-27T15:24:15.405Z,22.71
2022-07-27T15:29:16.245Z,23.25
2022-07-27T15:34:17.070Z,23.28
2022-07-27T15:39:20.818Z,23.06
2022-07-27T15:44:22.786Z,23.50
2022-07-27T15:49:23.880Z,23.41
2022-07-27T15:54:30.113Z,23.28
2022-07-27T15:59:33.676Z,24.14
2022-07-27T16:04:34.839Z,23.84
2022-07-27T16:09:37.264Z,25.09
2022-07-27T16:14:37.883Z,24.37
2022-07-27T16:19:38.566Z,24.10
2022-07-27T16:24:40.627Z,22.71
2022-07-27T16:29:41.324Z,22.52
2022-07-27T16:34:42.041Z,23.97
2022-07-27T16:39:44.724Z,25.72
2022-07-27T16:44:45.540Z,26.99
2022-07-27T16:49:46.309Z,27.17
2022-07-27T16:54:48.344Z,27.67
2022-07-27T16:59:49.298Z,27.86
2022-07-27T17:04:51.126Z,28.41
2022-07-27T17:09:53.173Z,27.87
2022-07-27T17:14:53.846Z,27.21
2022-07-27T17:19:54.558Z,27.48
2022-07-27T17:24:56.664Z,27.35
2022-07-27T17:29:57.397Z,26.48
2022-07-27T17:34:58.101Z,25.72
2022-07-27T17:40:00.190Z,25.90
2022-07-27T17:45:00.913Z,26.17
2022-07-27T17:50:01.614Z,25.62
2022-07-27T17:55:04.103Z,25.84
2022-07-27T18:00:06.298Z,23.92
2022-07-27T18:05:08.765Z,21.94
2022-07-27T18:10:11.100Z,21.28
2022-07-27T18:15:31.905Z,20.96
2022-07-27T18:20:32.738Z,20.70
2022-07-27T18:25:34.874Z,20.63
2022-07-27T18:30:35.691Z,20.36
2022-07-27T18:35:36.348Z,20.16
2022-07-27T18:40:39.440Z,19.91
2022-07-27T18:45:41.069Z,19.79
2022-07-27T18:50:41.740Z,19.70
2022-07-27T18:55:44.912Z,19.42
2022-07-27T19:00:45.547Z,19.31
2022-07-27T19:05:47.091Z,19.27
2022-07-27T19:10:49.195Z,19.05
2022-07-27T19:15:50.141Z,18.97
2022-07-27T19:20:50.837Z,18.84
2022-07-27T19:25:53.056Z,18.66
2022-07-27T19:30:54.389Z,18.57
2022-07-27T19:35:55.610Z,18.59
2022-07-27T19:40:57.604Z,18.50
2022-07-27T19:45:58.395Z,18.43
2022-07-27T19:51:04.772Z,18.41
2022-07-27T19:56:09.121Z,18.19
2022-07-27T20:01:11.502Z,18.00
2022-07-27T20:06:14.132Z,17.96
2022-07-27T20:11:16.206Z,17.77
2022-07-27T20:16:17.897Z,17.62
2022-07-27T20:21:23.020Z,17.56
2022-07-27T20:26:25.751Z,17.43
2022-07-27T20:31:26.679Z,17.38
2022-07-27T20:36:27.423Z,17.20
2022-07-27T20:41:29.507Z,17.07
2022-07-27T20:46:30.199Z,17.10
2022-07-27T20:51:30.991Z,16.99
2022-07-27T20:56:32.935Z,16.90
2022-07-27T21:01:33.684Z,16.78
2022-07-27T21:06:35.249Z,16.57
2022-07-27T21:11:37.313Z,16.38
2022-07-27T21:16:38.011Z,16.35
2022-07-27T21:21:38.766Z,16.35
2022-07-27T21:26:40.749Z,16.31
2022-07-27T21:31:46.375Z,16.12
2022-07-27T21:36:47.808Z,15.95
2022-07-27T21:41:49.722Z,15.88
2022-07-27T21:46:52.746Z,15.86
2022-07-27T21:51:53.360Z,15.75
2022-07-27T21:56:57.558Z,15.65
2022-07-27T22:01:58.858Z,15.58
2022-07-27T22:06:59.475Z,15.42
2022-07-27T22:12:01.420Z,15.30
2022-07-27T22:17:03.093Z,15.20
2022-07-27T22:22:05.271Z,15.13
2022-07-27T22:27:07.666Z,14.99
2022-07-27T22:32:10.569Z,14.89
2022-07-27T22:37:14.876Z,14.79
2022-07-27T22:42:17.241Z,14.77
2022-07-27T22:47:18.062Z,14.74
2022-07-27T22:52:18.815Z,14.75
2022-07-27T22:57:25.539Z,14.65
2022-07-27T23:02:26.983Z,14.46
2022-07-27T23:07:27.610Z,14.43
2022-07-27T23:12:29.613Z,14.33
2022-07-27T23:17:31.351Z,14.27
2022-07-27T23:22:31.967Z,14.22
2022-07-27T23:27:36.290Z,14.18
2022-07-27T23:32:37.207Z,14.12
2022-07-27T23:37:37.908Z,14.04
2022-07-27T23:42:39.896Z,13.96
2022-07-27T23:47:40.929Z,13.93
2022-07-27T23:52:41.742Z,13.82
2022-07-27T23:57:43.745Z,13.76
